Time;durP1;ratioP1;P1;durP2;ratioP2;P2;SDS_P1;SDS_P2;PMS_P1;PMS_P2;Temp;Humidity;BMP_temperature;BMP_pressure;BME280_temperature;BME280_humidity;BME280_pressure;Samples;Min_cycle;Max_cycle;Signal;HPM_P1;HPM_P2
2022/05/09 00:01:35;;;;;;;2.55;2.45;;;22.10;58.50;;;;;;4992173;28;20534;-16
2022/05/09 00:04:01;;;;;;;2.85;2.75;;;22.10;58.40;;;;;;4992916;28;20038;-15
2022/05/09 00:06:26;;;;;;;2.47;2.38;;;22.00;58.80;;;;;;4993542;28;20132;-16
2022/05/09 00:08:52;;;;;;;2.78;2.67;;;22.00;58.60;;;;;;4993362;28;20117;-15
2022/05/09 00:11:18;;;;;;;2.53;2.42;;;22.00;58.60;;;;;;4990325;28;20077;-15
2022/05/09 00:13:43;;;;;;;2.50;2.40;;;22.00;58.60;;;;;;4993807;28;20127;-16
2022/05/09 00:16:09;;;;;;;2.70;2.50;;;22.10;58.70;;;;;;4987049;28;20046;-15
2022/05/09 00:18:35;;;;;;;5.57;2.75;;;22.00;58.60;;;;;;4993521;28;21005;-15
2022/05/09 00:21:00;;;;;;;2.80;2.70;;;22.00;58.60;;;;;;4988675;28;20035;-15
2022/05/09 00:23:26;;;;;;;2.33;2.22;;;22.00;58.60;;;;;;4987726;28;20070;-15
2022/05/09 00:25:52;;;;;;;2.22;2.13;;;22.00;59.30;;;;;;4994263;28;20057;-16
2022/05/09 00:28:18;;;;;;;2.40;2.30;;;22.00;58.60;;;;;;4989767;28;20076;-15
2022/05/09 00:30:43;;;;;;;2.45;2.35;;;22.00;58.50;;;;;;4997989;28;20113;-15
2022/05/09 00:33:09;;;;;;;2.28;2.17;;;22.00;58.60;;;;;;4996987;28;20172;-16
2022/05/09 00:35:36;;;;;;;2.33;2.22;;;22.00;58.50;;;;;;4997414;28;20048;-15
2022/05/09 00:38:02;;;;;;;2.30;2.20;;;22.00;58.60;;;;;;4998866;28;20121;-15
2022/05/09 00:40:27;;;;;;;2.30;2.20;;;22.00;58.60;;;;;;4992902;28;20492;-15
2022/05/09 00:42:53;;;;;;;2.83;2.55;;;21.90;58.60;;;;;;4978136;28;20483;-15
2022/05/09 00:45:21;;;;;;;2.53;2.42;;;21.90;58.50;;;;;;4978783;28;20471;-15
2022/05/09 00:47:47;;;;;;;2.30;2.20;;;21.90;58.50;;;;;;4979485;28;20503;-16
2022/05/09 00:50:16;;;;;;;1.95;1.85;;;21.90;58.40;;;;;;4978528;28;20528;-16
2022/05/09 00:52:58;;;;;;;2.15;2.05;;;21.90;58.50;;;;;;4977956;28;20389;-16
2022/05/09 00:55:26;;;;;;;2.50;2.40;;;21.80;58.60;;;;;;4978526;28;20147;-15
2022/05/09 00:57:57;;;;;;;2.33;2.17;;;21.90;58.50;;;;;;4988409;28;20145;-15
2022/05/09 01:00:23;;;;;;;2.40;2.30;;;21.90;58.50;;;;;;4996503;28;20092;-16
2022/05/09 01:02:51;;;;;;;2.63;2.25;;;21.80;58.60;;;;;;4997607;28;20415;-15
2022/05/09 01:05:17;;;;;;;2.00;1.90;;;21.80;58.50;;;;;;4988667;28;20035;-15
2022/05/09 01:07:43;;;;;;;2.60;2.40;;;21.80;58.60;;;;;;4978917;28;20077;-15
2022/05/09 01:10:13;;;;;;;2.38;2.28;;;21.80;59.20;;;;;;4978650;28;20078;-16
2022/05/09 01:12:39;;;;;;;2.35;2.25;;;21.80;58.50;;;;;;4966116;28;20051;-15
2022/05/09 01:15:10;;;;;;;2.67;2.58;;;21.80;58.40;;;;;;4987116;28;20049;-15
2022/05/09 01:17:39;;;;;;;2.45;2.35;;;21.80;58.40;;;;;;4996571;28;20050;-16
2022/05/09 01:20:06;;;;;;;2.28;2.17;;;21.80;58.50;;;;;;4995454;28;20046;-15
2022/05/09 01:22:34;;;;;;;2.20;2.10;;;21.80;58.40;;;;;;4995680;28;20108;-15
2022/05/09 01:25:03;;;;;;;2.42;2.22;;;21.80;58.40;;;;;;4996323;28;20052;-16
2022/05/09 01:27:32;;;;;;;2.15;2.05;;;21.80;58.50;;;;;;4978057;28;20162;-15
2022/05/09 01:30:01;;;;;;;1.77;1.67;;;21.80;58.30;;;;;;4981716;28;20550;-15
2022/05/09 01:32:56;;;;;;;2.20;2.10;;;21.80;58.40;;;;;;4993206;28;20046;-15
2022/05/09 01:35:30;;;;;;;2.03;1.95;;;21.80;58.50;;;;;;4977202;28;20053;-15
2022/05/09 01:38:18;;;;;;;2.15;2.05;;;21.80;58.30;;;;;;4982390;28;20072;-15
2022/05/09 01:40:44;;;;;;;2.15;2.05;;;21.70;58.30;;;;;;4962756;28;20051;-16
2022/05/09 01:43:09;;;;;;;1.92;1.83;;;21.80;58.40;;;;;;4969164;28;20043;-17
2022/05/09 01:45:35;;;;;;;2.08;1.98;;;21.80;58.30;;;;;;4959951;28;20047;-15
2022/05/09 01:50:45;;;;;;;;;;;21.80;58.40;;;;;;4996996;28;20065;-15
2022/05/09 01:53:10;;;;;;;2.25;2.15;;;21.80;58.50;;;;;;4996910;28;19914;-16
2022/05/09 01:55:36;;;;;;;1.90;1.80;;;21.70;58.30;;;;;;4997565;28;20043;-15
2022/05/09 01:58:01;;;;;;;2.30;2.20;;;21.70;58.40;;;;;;4997529;28;20074;-15
2022/05/09 02:00:28;;;;;;;2.35;2.25;;;21.70;58.30;;;;;;4996585;28;20137;-15
2022/05/09 02:02:54;;;;;;;2.20;2.10;;;21.70;58.40;;;;;;4996930;28;20050;-16
2022/05/09 02:05:19;;;;;;;2.42;2.30;;;21.70;58.30;;;;;;4995440;28;20039;-15
2022/05/09 02:07:45;;;;;;;2.20;2.10;;;21.70;58.30;;;;;;4997204;28;20050;-15
2022/05/09 02:10:11;;;;;;;2.00;1.90;;;21.70;58.50;;;;;;4989654;28;20049;-15
2022/05/09 02:12:37;;;;;;;1.80;1.70;;;21.70;58.40;;;;;;4996375;28;20046;-15
2022/05/09 02:15:04;;;;;;;1.95;1.75;;;21.70;58.40;;;;;;4995297;28;20574;-15
2022/05/09 02:17:30;;;;;;;2.35;2.00;;;21.70;58.60;;;;;;4996326;28;20431;-15
2022/05/09 02:19:56;;;;;;;1.77;1.67;;;21.60;58.40;;;;;;4996395;28;20043;-15
2022/05/09 02:22:21;;;;;;;2.15;2.05;;;21.70;58.60;;;;;;4993403;28;20092;-15
2022/05/09 02:24:47;;;;;;;2.10;2.00;;;21.70;58.60;;;;;;4996981;28;20038;-16
2022/05/09 02:27:12;;;;;;;2.08;1.98;;;21.70;58.60;;;;;;4996461;28;20065;-16
2022/05/09 02:29:39;;;;;;;2.05;1.85;;;21.70;58.40;;;;;;4994965;28;20475;-15
2022/05/09 02:32:05;;;;;;;1.58;1.50;;;21.70;58.50;;;;;;4996808;28;20411;-15
2022/05/09 02:34:32;;;;;;;2.05;1.95;;;21.70;58.60;;;;;;4995303;28;20050;-15
2022/05/09 02:36:57;;;;;;;1.95;1.85;;;21.70;58.40;;;;;;4996697;28;20078;-15
2022/05/09 02:39:23;;;;;;;2.63;1.77;;;21.60;58.40;;;;;;4994221;28;20053;-15
2022/05/09 02:41:49;;;;;;;1.85;1.75;;;21.70;58.60;;;;;;4975926;28;20047;-15
2022/05/09 02:44:15;;;;;;;2.10;1.88;;;21.70;58.30;;;;;;4975283;28;20092;-16
2022/05/09 02:46:42;;;;;;;1.60;1.60;;;21.70;58.30;;;;;;4993116;28;20061;-15
2022/05/09 02:49:08;;;;;;;1.90;1.80;;;21.60;58.40;;;;;;4976950;28;20130;-15
2022/05/09 02:51:34;;;;;;;2.38;2.28;;;21.60;58.40;;;;;;4976773;28;20082;-16
2022/05/09 02:53:59;;;;;;;2.13;2.03;;;21.60;58.40;;;;;;4976657;28;20039;-15
2022/05/09 02:56:25;;;;;;;1.88;1.77;;;21.60;58.40;;;;;;4976420;28;20039;-15
2022/05/09 02:58:51;;;;;;;1.98;1.88;;;21.60;58.40;;;;;;4976949;28;20035;-15
2022/05/09 03:01:16;;;;;;;1.92;1.83;;;21.60;58.40;;;;;;4975267;28;20043;-16
2022/05/09 03:06:26;;;;;;;2.10;2.00;;;21.70;58.30;;;;;;4976075;28;20093;-15
2022/05/09 03:08:52;;;;;;;1.75;1.70;;;21.60;58.40;;;;;;4977184;28;20047;-15
2022/05/09 03:11:18;;;;;;;2.05;1.90;;;21.60;58.50;;;;;;4976539;28;20061;-16
2022/05/09 03:13:43;;;;;;;2.08;1.92;;;21.60;58.40;;;;;;4992470;28;20046;-17
2022/05/09 03:16:09;;;;;;;2.10;2.00;;;21.60;58.40;;;;;;4996186;28;20054;-15
2022/05/09 03:18:35;;;;;;;2.00;1.90;;;21.50;58.40;;;;;;4978672;28;20051;-15
2022/05/09 03:21:01;;;;;;;2.03;1.92;;;21.50;58.50;;;;;;4989153;28;20529;-15
2022/05/09 03:23:26;;;;;;;2.00;1.90;;;21.50;58.50;;;;;;4995012;28;20129;-15
2022/05/09 03:25:52;;;;;;;2.05;1.95;;;21.60;58.30;;;;;;4982054;28;20074;-15
2022/05/09 03:28:19;;;;;;;1.90;1.80;;;21.60;58.50;;;;;;4976319;28;20055;-15
2022/05/09 03:30:45;;;;;;;1.48;1.48;;;21.60;58.40;;;;;;4995783;28;20053;-15
2022/05/09 03:33:14;;;;;;;2.45;2.25;;;21.60;58.40;;;;;;4993821;28;20042;-15
2022/05/09 03:35:40;;;;;;;2.20;2.10;;;21.50;58.10;;;;;;4995459;28;20050;-15
2022/05/09 03:38:06;;;;;;;2.20;2.10;;;21.50;58.30;;;;;;4989917;28;20039;-15
2022/05/09 03:40:31;;;;;;;2.08;1.98;;;21.50;58.40;;;;;;4986300;28;20054;-15
2022/05/09 03:42:59;;;;;;;1.95;1.85;;;21.50;58.30;;;;;;4995854;28;20042;-16
2022/05/09 03:45:25;;;;;;;2.05;1.95;;;21.50;58.40;;;;;;4995256;28;20082;-15
2022/05/09 03:47:51;;;;;;;2.08;1.98;;;21.50;58.20;;;;;;4990665;28;20058;-15
2022/05/09 03:50:16;;;;;;;2.15;2.05;;;21.50;58.30;;;;;;4976345;28;20428;-15
2022/05/09 03:52:42;;;;;;;2.40;2.20;;;21.50;58.30;;;;;;4983896;28;20217;-15
2022/05/09 03:55:08;;;;;;;2.22;2.13;;;21.40;58.40;;;;;;4994578;28;20053;-15
2022/05/09 03:57:34;;;;;;;2.03;1.92;;;21.50;58.40;;;;;;4994560;28;20505;-15
2022/05/09 04:00:06;;;;;;;2.00;1.90;;;21.50;58.50;;;;;;4994533;28;20065;-15
2022/05/09 04:02:32;;;;;;;2.15;2.05;;;21.50;58.40;;;;;;4994409;28;20042;-15
2022/05/09 04:04:57;;;;;;;1.85;1.75;;;21.50;58.30;;;;;;4997072;28;20045;-15
2022/05/09 04:07:23;;;;;;;1.92;1.83;;;21.50;58.40;;;;;;4998760;28;20049;-15
2022/05/09 04:09:49;;;;;;;2.05;1.95;;;21.50;58.40;;;;;;4997934;28;20046;-15
2022/05/09 04:12:14;;;;;;;2.05;1.95;;;21.50;58.40;;;;;;4997961;28;20046;-15
2022/05/09 04:17:24;;;;;;;1.88;1.77;;;21.40;58.40;;;;;;4996602;28;20473;-16
2022/05/09 04:19:50;;;;;;;1.92;1.83;;;21.50;58.30;;;;;;4979644;28;20089;-15
2022/05/09 04:22:15;;;;;;;2.17;2.08;;;21.40;58.60;;;;;;4979771;28;20133;-15
2022/05/09 04:24:42;;;;;;;1.95;1.85;;;21.40;58.30;;;;;;4998207;28;20129;-15
2022/05/09 04:27:08;;;;;;;1.88;1.77;;;21.40;58.20;;;;;;4999149;28;20038;-15
2022/05/09 04:29:34;;;;;;;1.90;1.80;;;21.40;58.50;;;;;;4998406;28;20046;-15
2022/05/09 04:32:00;;;;;;;1.98;1.88;;;21.40;58.20;;;;;;4998297;28;20042;-16
2022/05/09 04:34:26;;;;;;;2.00;1.90;;;21.40;58.30;;;;;;4998240;28;20043;-15
2022/05/09 04:36:51;;;;;;;1.80;1.70;;;21.40;58.60;;;;;;4996637;28;20042;-15
2022/05/09 04:39:18;;;;;;;1.98;1.88;;;21.40;58.20;;;;;;4997838;28;20087;-15
2022/05/09 04:41:44;;;;;;;2.00;1.90;;;21.40;58.40;;;;;;4998150;28;20068;-15
2022/05/09 04:44:09;;;;;;;1.45;1.45;;;21.40;58.30;;;;;;4998866;28;20042;-15
2022/05/09 04:46:35;;;;;;;2.08;1.98;;;21.40;58.30;;;;;;4981176;28;20038;-17
2022/05/09 04:49:01;;;;;;;1.92;1.83;;;21.40;58.30;;;;;;4979094;28;20050;-15
2022/05/09 04:51:26;;;;;;;1.60;1.60;;;21.40;58.30;;;;;;4989394;28;20450;-15
2022/05/09 04:53:52;;;;;;;2.10;2.00;;;21.40;58.30;;;;;;4997228;28;20081;-15
2022/05/09 04:56:18;;;;;;;2.13;2.03;;;21.40;58.40;;;;;;4981601;28;20038;-16
2022/05/09 04:58:44;;;;;;;2.08;1.98;;;21.40;58.40;;;;;;4961270;28;20098;-15
2022/05/09 05:01:10;;;;;;;1.80;1.70;;;21.40;58.10;;;;;;4990162;28;20046;-15
2022/05/09 05:03:35;;;;;;;2.00;1.90;;;21.40;58.40;;;;;;4996902;28;20081;-15
2022/05/09 05:06:02;;;;;;;2.00;1.90;;;21.40;58.40;;;;;;4998478;28;20050;-15
2022/05/09 05:08:33;;;;;;;1.67;1.58;;;21.40;58.30;;;;;;4997717;28;20046;-15
2022/05/09 05:11:04;;;;;;;2.03;1.92;;;21.30;58.30;;;;;;4998341;28;20077;-15
2022/05/09 05:13:32;;;;;;;1.70;1.60;;;21.40;58.20;;;;;;4995428;28;20088;-15
2022/05/09 05:15:58;;;;;;;1.98;1.88;;;21.40;58.30;;;;;;4649749;28;10000581;-15
2022/05/09 05:18:25;;;;;;;1.90;1.80;;;21.40;58.10;;;;;;4992338;28;20330;-16
2022/05/09 05:20:51;;;;;;;3.58;2.05;;;21.40;58.20;;;;;;4988315;28;20152;-15
2022/05/09 05:23:17;;;;;;;1.88;1.77;;;21.40;58.10;;;;;;4999307;28;20102;-15
2022/05/09 05:25:45;;;;;;;1.92;1.83;;;21.40;58.50;;;;;;4993132;28;20137;-15
2022/05/09 05:28:12;;;;;;;1.55;1.55;;;21.40;58.60;;;;;;4992505;28;20046;-15
2022/05/09 05:30:37;;;;;;;1.58;1.50;;;21.40;58.50;;;;;;4990890;28;20416;-15
2022/05/09 05:33:04;;;;;;;1.98;1.88;;;21.40;58.70;;;;;;4993763;28;20077;-15
2022/05/09 05:35:30;;;;;;;1.85;1.75;;;21.40;58.70;;;;;;4992886;28;20056;-15
2022/05/09 05:37:55;;;;;;;2.10;2.00;;;21.30;58.60;;;;;;5000472;28;20140;-16
2022/05/09 05:40:21;;;;;;;2.00;1.90;;;21.30;58.50;;;;;;5000361;28;20050;-14
2022/05/09 05:42:47;;;;;;;1.80;1.70;;;21.30;58.50;;;;;;4993246;28;20046;-15
2022/05/09 05:45:15;;;;;;;1.83;1.73;;;21.30;58.40;;;;;;4993314;28;20085;-15
2022/05/09 05:47:40;;;;;;;1.98;1.88;;;21.30;58.50;;;;;;4980724;28;20475;-15
2022/05/09 05:50:08;;;;;;;1.60;1.50;;;21.30;58.50;;;;;;4989114;28;20097;-16
2022/05/09 05:52:33;;;;;;;1.90;1.80;;;21.30;58.50;;;;;;4992812;28;20038;-15
2022/05/09 05:54:59;;;;;;;1.80;1.70;;;21.30;58.70;;;;;;4994078;28;20133;-15
2022/05/09 05:57:26;;;;;;;2.03;1.92;;;21.30;58.60;;;;;;5006455;28;20042;-15
2022/05/09 05:59:57;;;;;;;1.40;1.30;;;21.30;58.70;;;;;;4992571;28;20298;-15
2022/05/09 06:02:23;;;;;;;1.85;1.75;;;21.30;58.70;;;;;;4992855;28;20059;-15
2022/05/09 06:04:49;;;;;;;1.70;1.60;;;21.20;58.80;;;;;;4991476;28;20073;-15
2022/05/09 06:07:15;;;;;;;1.92;1.83;;;21.20;58.70;;;;;;4993295;28;20046;-15
2022/05/09 06:09:40;;;;;;;1.67;1.67;;;21.20;59.30;;;;;;4992263;28;20049;-15
2022/05/09 06:12:07;;;;;;;1.80;1.70;;;21.30;59.30;;;;;;4993440;28;20038;-16
2022/05/09 06:14:32;;;;;;;1.48;1.38;;;21.30;59.00;;;;;;4992578;28;20151;-15
2022/05/09 06:16:58;;;;;;;1.90;1.80;;;21.30;59.00;;;;;;4991405;28;20050;-15
2022/05/09 06:19:24;;;;;;;2.53;2.25;;;21.40;59.00;;;;;;4986755;28;20061;-15
2022/05/09 06:21:50;;;;;;;2.67;2.47;;;21.40;58.40;;;;;;4992880;28;20137;-18
2022/05/09 06:24:16;;;;;;;2.95;2.80;;;21.30;58.30;;;;;;4996235;28;20587;-16
2022/05/09 06:26:42;;;;;;;3.17;2.97;;;21.30;58.50;;;;;;4992721;28;20068;-16
2022/05/09 06:29:08;;;;;;;2.85;2.65;;;21.10;58.60;;;;;;4995740;28;20573;-16
2022/05/09 06:31:34;;;;;;;3.38;3.17;;;21.00;58.90;;;;;;4994111;28;20475;-16
2022/05/09 06:34:01;;;;;;;3.20;3.00;;;21.00;59.20;;;;;;4994850;28;20073;-16
2022/05/09 06:36:27;;;;;;;3.35;3.15;;;21.00;59.20;;;;;;4996066;28;20038;-17
2022/05/09 06:38:52;;;;;;;4.00;3.60;;;20.90;59.20;;;;;;4995804;28;20040;-16
2022/05/09 06:41:18;;;;;;;4.07;3.72;;;20.80;59.40;;;;;;4996306;28;20042;-16
2022/05/09 06:43:44;;;;;;;3.58;3.30;;;20.70;59.60;;;;;;4995201;28;20054;-16
2022/05/09 06:46:10;;;;;;;2.90;2.70;;;20.70;59.70;;;;;;4996489;28;20057;-16
2022/05/09 06:48:36;;;;;;;3.72;3.42;;;20.70;59.60;;;;;;4995655;28;20511;-16
2022/05/09 06:51:01;;;;;;;3.55;3.30;;;20.70;59.70;;;;;;4996179;28;20034;-16
2022/05/09 06:53:27;;;;;;;4.05;3.75;;;20.70;59.80;;;;;;4995543;28;20042;-16
2022/05/09 06:55:52;;;;;;;3.58;3.28;;;20.70;59.50;;;;;;4995652;28;20526;-16
2022/05/09 06:58:22;;;;;;;3.55;3.25;;;20.70;59.60;;;;;;4996278;28;20050;-16
2022/05/09 07:00:48;;;;;;;3.97;3.67;;;20.70;59.70;;;;;;4987781;28;20173;-16
2022/05/09 07:03:14;;;;;;;3.88;3.58;;;20.60;59.80;;;;;;4976485;28;20435;-16
2022/05/09 07:05:43;;;;;;;5.05;3.15;;;20.60;59.80;;;;;;4975980;28;20133;-16
2022/05/09 07:08:09;;;;;;;4.20;3.70;;;20.60;60.00;;;;;;4976892;28;20082;-16
2022/05/09 07:10:36;;;;;;;3.53;3.22;;;20.60;59.90;;;;;;4974836;28;20103;-16
2022/05/09 07:13:04;;;;;;;3.47;3.28;;;20.70;59.80;;;;;;4986586;28;20121;-16
2022/05/09 07:15:30;;;;;;;3.88;3.58;;;20.70;59.70;;;;;;4994838;28;20050;-17
2022/05/09 07:17:56;;;;;;;3.83;3.63;;;20.70;59.80;;;;;;4995455;28;20031;-16
2022/05/09 07:20:22;;;;;;;3.70;3.40;;;20.60;60.30;;;;;;4995502;28;20092;-16
2022/05/09 07:22:55;;;;;;;4.22;3.92;;;20.70;59.80;;;;;;4994396;28;20042;-16
2022/05/09 07:25:21;;;;;;;3.80;3.60;;;20.80;59.50;;;;;;4985857;28;20092;-15
2022/05/09 07:27:47;;;;;;;3.42;3.22;;;20.90;59.40;;;;;;4992903;28;20038;-15
2022/05/09 07:30:16;;;;;;;3.45;3.22;;;20.90;59.20;;;;;;4989579;28;20042;-15
2022/05/09 07:32:41;;;;;;;3.58;3.30;;;21.00;59.30;;;;;;4982793;28;20068;-18
2022/05/09 07:35:09;;;;;;;3.83;3.33;;;21.10;59.00;;;;;;4979618;28;20082;-18
2022/05/09 07:37:34;;;;;;;4.35;3.97;;;21.00;59.20;;;;;;4978290;28;20058;-18
2022/05/09 07:40:00;;;;;;;4.43;4.03;;;21.00;59.40;;;;;;4983471;28;20054;-18
2022/05/09 07:42:26;;;;;;;3.80;3.58;;;21.00;59.50;;;;;;4983261;28;20105;-19
2022/05/09 07:44:54;;;;;;;3.97;3.67;;;20.90;59.60;;;;;;4983155;28;20108;-16
2022/05/09 07:47:19;;;;;;;4.72;4.25;;;21.00;59.50;;;;;;4981915;28;20065;-16
2022/05/09 07:49:45;;;;;;;6.78;4.40;;;20.90;59.70;;;;;;4982974;28;20078;-17
2022/05/09 07:52:11;;;;;;;4.15;3.95;;;20.90;60.00;;;;;;4982721;28;20531;-16
2022/05/09 07:54:37;;;;;;;5.10;4.72;;;20.90;59.90;;;;;;4982028;28;20046;-16
2022/05/09 07:57:03;;;;;;;6.47;5.50;;;20.90;60.00;;;;;;4982816;28;20057;-16
2022/05/09 07:59:29;;;;;;;5.25;4.88;;;20.90;60.20;;;;;;4981496;28;20932;-16
2022/05/09 08:01:55;;;;;;;4.90;4.18;;;20.80;60.30;;;;;;4982356;28;20078;-16
2022/05/09 08:04:21;;;;;;;5.50;5.10;;;20.90;60.30;;;;;;4983044;28;20050;-19
2022/05/09 08:06:47;;;;;;;5.75;5.35;;;20.90;60.30;;;;;;4981440;28;20522;-16
2022/05/09 08:09:12;;;;;;;5.85;5.25;;;20.90;60.50;;;;;;5004691;28;20076;-16
2022/05/09 08:11:38;;;;;;;5.13;4.70;;;20.90;60.30;;;;;;4998679;28;20503;-16
2022/05/09 08:14:05;;;;;;;5.63;5.18;;;20.90;60.60;;;;;;4999008;28;20125;-16
2022/05/09 08:16:31;;;;;;;5.80;5.30;;;20.80;60.60;;;;;;4998469;28;20047;-16
2022/05/09 08:18:58;;;;;;;5.47;5.07;;;20.90;60.70;;;;;;4998231;28;20042;-16
2022/05/09 08:21:25;;;;;;;4.43;4.13;;;20.90;60.70;;;;;;4998779;28;20049;-16
2022/05/09 08:23:51;;;;;;;6.07;5.60;;;20.80;60.80;;;;;;4997587;28;20042;-16
2022/05/09 08:26:18;;;;;;;6.20;5.57;;;20.90;60.80;;;;;;4998048;28;20046;-16
2022/05/09 08:28:44;;;;;;;5.03;4.63;;;20.90;60.70;;;;;;4998203;28;20054;-16
2022/05/09 08:31:10;;;;;;;5.05;4.65;;;21.00;60.70;;;;;;4998302;28;20054;-16
2022/05/09 08:33:36;;;;;;;6.00;5.50;;;21.00;60.70;;;;;;4997760;28;20093;-16
2022/05/09 08:36:03;;;;;;;4.82;4.43;;;21.00;60.70;;;;;;4983633;28;20128;-16
2022/05/09 08:38:29;;;;;;;4.57;4.28;;;21.10;60.70;;;;;;4979049;28;20042;-15
2022/05/09 08:41:04;;;;;;;5.30;4.90;;;21.10;60.70;;;;;;4978467;28;20500;-16
2022/05/09 08:43:44;;;;;;;4.72;4.32;;;21.10;60.80;;;;;;4978769;28;20150;-16
2022/05/09 08:46:27;;;;;;;4.95;4.60;;;21.10;60.80;;;;;;4997719;28;20566;-17
2022/05/09 08:48:55;;;;;;;5.13;4.80;;;21.10;60.80;;;;;;4996338;28;20042;-16
2022/05/09 08:51:27;;;;;;;5.90;5.30;;;21.10;61.30;;;;;;4995243;28;20050;-16
2022/05/09 08:53:56;;;;;;;4.93;4.53;;;21.10;61.20;;;;;;4998883;28;20050;-16
2022/05/09 08:56:23;;;;;;;6.43;5.68;;;21.10;61.10;;;;;;4998156;28;20015;-16
2022/05/09 08:58:51;;;;;;;5.55;5.18;;;21.10;61.00;;;;;;4999302;28;20018;-16
2022/05/09 09:01:22;;;;;;;5.22;4.82;;;21.10;60.80;;;;;;4985610;28;20110;-16
2022/05/09 09:03:59;;;;;;;5.43;5.00;;;21.20;60.80;;;;;;4979357;28;20035;-16
2022/05/09 09:06:36;;;;;;;5.32;4.93;;;21.20;60.70;;;;;;4980808;28;20039;-16
2022/05/09 09:09:20;;;;;;;4.70;4.30;;;21.30;60.70;;;;;;4978346;28;20563;-16
2022/05/09 09:12:26;;;;;;;4.90;4.60;;;21.30;60.70;;;;;;4985835;28;20039;-16
2022/05/09 09:15:00;;;;;;;4.90;4.60;;;21.30;60.50;;;;;;4997675;28;20450;-16
2022/05/09 09:17:45;;;;;;;;;;;21.30;60.60;;;;;;4998384;28;20516;-16
2022/05/09 09:20:16;;;;;;;4.60;4.30;;;21.40;60.40;;;;;;4979912;28;20369;-16
2022/05/09 09:23:03;;;;;;;4.82;4.43;;;21.40;60.40;;;;;;4979520;28;20050;-16
2022/05/09 09:25:48;;;;;;;4.63;4.40;;;21.40;60.20;;;;;;4983702;28;20483;-16
2022/05/09 09:28:16;;;;;;;4.97;4.57;;;21.40;60.50;;;;;;4996448;28;20034;-16
2022/05/09 09:30:43;;;;;;;5.70;5.25;;;21.40;60.50;;;;;;4997538;28;20042;-16
2022/05/09 09:33:10;;;;;;;5.18;4.78;;;21.50;61.00;;;;;;4982891;28;20086;-16
2022/05/09 09:36:00;;;;;;;4.88;4.47;;;21.50;60.50;;;;;;4977958;28;20030;-16
2022/05/09 09:39:17;;;;;;;3.47;3.28;;;21.40;61.00;;;;;;4979441;28;20037;-16
2022/05/09 09:41:43;;;;;;;4.75;4.45;;;21.50;60.60;;;;;;4996349;28;20112;-16
2022/05/09 09:44:13;;;;;;;4.30;3.90;;;21.50;60.60;;;;;;4979328;28;20026;-16
2022/05/09 09:47:04;;;;;;;4.35;3.95;;;21.60;60.20;;;;;;4993666;28;20030;-16
2022/05/09 09:49:31;;;;;;;4.20;3.90;;;21.70;59.90;;;;;;4980948;28;20048;-16
2022/05/09 09:51:57;;;;;;;3.45;3.25;;;21.70;59.70;;;;;;4996269;28;20037;-16
2022/05/09 09:54:29;;;;;;;3.75;3.55;;;21.70;59.70;;;;;;4998303;28;20037;-16
2022/05/09 09:56:54;;;;;;;4.32;3.45;;;21.70;59.60;;;;;;4996029;28;20034;-16
2022/05/09 09:59:23;;;;;;;3.92;3.60;;;21.70;59.50;;;;;;4998452;28;20022;-16
2022/05/09 10:02:16;;;;;;;3.60;3.40;;;21.70;59.50;;;;;;4996822;28;20506;-16
2022/05/09 10:04:42;;;;;;;3.15;2.92;;;21.70;59.50;;;;;;4997998;28;20093;-16
2022/05/09 10:07:09;;;;;;;3.20;3.03;;;21.70;59.50;;;;;;4998406;28;20114;-16
2022/05/09 10:09:42;;;;;;;3.03;2.83;;;21.70;59.50;;;;;;4991300;28;20031;-17
2022/05/09 10:12:25;;;;;;;3.60;3.30;;;21.70;59.30;;;;;;4982644;28;20069;-16
2022/05/09 10:14:50;;;;;;;3.15;2.97;;;21.80;59.30;;;;;;4997759;28;20476;-16
2022/05/09 10:17:33;;;;;;;2.72;2.63;;;21.80;59.20;;;;;;4996263;28;20439;-16
2022/05/09 10:20:00;;;;;;;3.30;3.10;;;21.80;59.10;;;;;;4994211;28;20022;-16
2022/05/09 10:25:20;;;;;;;3.60;3.40;;;21.80;59.00;;;;;;4996812;28;20080;-17
2022/05/09 10:27:47;;;;;;;3.67;2.90;;;21.80;59.10;;;;;;4997787;28;20073;-16
2022/05/09 10:30:24;;;;;;;2.90;2.70;;;21.80;59.00;;;;;;4978815;28;20468;-16
2022/05/09 10:32:52;;;;;;;3.13;2.92;;;21.80;59.00;;;;;;4997024;28;20030;-16
2022/05/09 10:35:38;;;;;;;2.97;2.78;;;21.80;59.00;;;;;;4996480;28;20038;-16
2022/05/09 10:38:23;;;;;;;2.53;2.42;;;21.80;58.90;;;;;;4997825;28;20034;-16
2022/05/09 10:40:51;;;;;;;3.05;2.80;;;21.80;58.90;;;;;;4991859;28;20046;-16
2022/05/09 10:43:38;;;;;;;2.83;2.55;;;21.80;58.80;;;;;;4978305;28;20046;-16
2022/05/09 10:46:09;;;;;;;2.80;2.60;;;21.80;58.80;;;;;;4960504;28;20026;-16
2022/05/09 10:48:45;;;;;;;3.05;2.88;;;21.80;58.80;;;;;;4977014;28;20043;-15
2022/05/09 10:51:16;;;;;;;3.17;2.97;;;21.80;58.70;;;;;;4976942;28;20030;-15
2022/05/09 10:53:57;;;;;;;2.97;2.78;;;21.80;58.70;;;;;;4961111;28;20033;-16
2022/05/09 10:56:38;;;;;;;3.00;2.80;;;21.80;58.70;;;;;;4991836;28;20087;-15
2022/05/09 10:59:05;;;;;;;2.83;2.63;;;21.80;58.70;;;;;;4996295;28;20483;-15
2022/05/09 11:01:34;;;;;;;3.47;2.70;;;21.80;58.70;;;;;;4996514;28;20510;-15
2022/05/09 11:04:00;;;;;;;2.45;2.20;;;21.80;58.60;;;;;;4977242;28;20038;-15
2022/05/09 11:06:46;;;;;;;3.15;2.95;;;21.80;58.50;;;;;;4991925;28;20037;-16
2022/05/09 11:09:34;;;;;;;2.92;2.83;;;21.80;58.50;;;;;;4977737;28;20023;-16
2022/05/09 11:12:05;;;;;;;2.50;2.40;;;21.80;58.40;;;;;;4976798;28;20424;-15
2022/05/09 11:14:50;;;;;;;2.58;2.47;;;21.80;58.40;;;;;;4977410;28;20026;-15
2022/05/09 11:17:48;;;;;;;2.83;2.70;;;21.80;58.40;;;;;;4976269;28;20027;-16
2022/05/09 11:20:27;;;;;;;2.50;2.30;;;21.90;58.30;;;;;;4976895;28;20058;-15
2022/05/09 11:22:58;;;;;;;2.17;2.08;;;21.80;58.40;;;;;;4975979;28;20050;-15
2022/05/09 11:25:35;;;;;;;2.50;2.40;;;21.90;58.40;;;;;;4977646;28;20462;-15
2022/05/09 11:28:05;;;;;;;2.67;2.58;;;21.90;58.30;;;;;;4975742;28;20397;-15
2022/05/09 11:30:38;;;;;;;2.70;2.53;;;21.90;58.30;;;;;;4992525;28;20027;-15
2022/05/09 11:33:15;;;;;;;2.97;2.70;;;21.90;58.20;;;;;;4975459;28;20113;-15
2022/05/09 11:35:41;;;;;;;2.58;2.38;;;21.90;58.20;;;;;;4976329;28;20055;-15
2022/05/09 11:38:34;;;;;;;2.50;2.40;;;21.90;58.10;;;;;;4960481;28;20031;-15
2022/05/09 11:41:03;;;;;;;2.30;2.20;;;21.90;58.20;;;;;;4976295;28;20027;-15
2022/05/09 11:43:56;;;;;;;2.65;2.55;;;21.90;58.10;;;;;;4976080;28;20046;-16
2022/05/09 11:46:59;;;;;;;2.40;2.30;;;21.90;58.10;;;;;;4959126;28;20027;-15
2022/05/09 11:49:38;;;;;;;2.80;2.70;;;21.90;58.10;;;;;;4962591;28;20035;-15
2022/05/09 11:52:20;;;;;;;2.60;2.40;;;21.90;58.00;;;;;;4974229;28;20411;-16
2022/05/09 11:54:47;;;;;;;2.30;2.20;;;22.00;57.90;;;;;;4983542;28;20065;-15
2022/05/09 11:57:30;;;;;;;2.67;2.58;;;21.90;57.90;;;;;;4976698;28;20077;-15
2022/05/09 11:59:58;;;;;;;2.33;2.22;;;21.90;57.90;;;;;;4977417;28;20026;-17
2022/05/09 12:02:45;;;;;;;2.35;2.15;;;21.90;57.90;;;;;;4974886;28;20369;-15
2022/05/09 12:05:26;;;;;;;2.30;2.20;;;21.90;57.90;;;;;;4972736;28;20038;-15
2022/05/09 12:08:17;;;;;;;2.55;2.45;;;21.90;58.00;;;;;;4973477;28;20026;-15
2022/05/09 12:10:44;;;;;;;2.42;2.33;;;21.90;58.00;;;;;;4981221;28;20023;-15
2022/05/09 12:13:19;;;;;;;2.88;2.25;;;21.90;57.90;;;;;;4990417;28;20084;-15
2022/05/09 12:15:49;;;;;;;2.53;2.40;;;21.90;58.00;;;;;;4974139;28;20034;-15
2022/05/09 12:18:19;;;;;;;2.30;2.20;;;21.90;57.90;;;;;;4976638;28;20161;-15
2022/05/09 12:20:48;;;;;;;2.58;1.95;;;21.90;57.90;;;;;;4988888;28;20035;-15
2022/05/09 12:23:39;;;;;;;2.42;2.33;;;21.90;57.90;;;;;;4971634;28;20090;-15
2022/05/09 12:26:05;;;;;;;2.17;2.08;;;21.90;57.70;;;;;;4970757;28;20023;-15
2022/05/09 12:28:39;;;;;;;2.33;2.20;;;22.00;58.30;;;;;;4975862;28;20077;-15
2022/05/09 12:31:06;;;;;;;1.92;1.83;;;22.00;57.70;;;;;;4961234;28;20039;-15
2022/05/09 12:33:41;;;;;;;2.38;2.28;;;22.00;57.70;;;;;;4967859;28;20034;-15
2022/05/09 12:36:24;;;;;;;2.38;2.28;;;22.00;57.70;;;;;;4978623;28;20035;-15
2022/05/09 12:38:52;;;;;;;2.17;2.08;;;22.00;57.70;;;;;;4979427;28;20026;-15
2022/05/09 12:41:25;;;;;;;5.15;2.25;;;22.10;57.50;;;;;;4979556;28;20023;-15
2022/05/09 12:44:10;;;;;;;2.50;2.30;;;22.10;57.00;;;;;;4978090;28;20484;-15
2022/05/09 12:46:57;;;;;;;2.05;1.95;;;22.10;56.90;;;;;;5010501;28;20415;-17
2022/05/09 12:49:27;;;;;;;2.28;2.17;;;22.10;56.90;;;;;;4972409;28;20416;-16
2022/05/09 12:51:55;;;;;;;2.53;2.42;;;22.10;57.30;;;;;;4990990;28;20027;-15
2022/05/09 12:54:23;;;;;;;2.40;2.30;;;22.10;57.40;;;;;;4974395;28;20031;-15
2022/05/09 12:56:52;;;;;;;2.10;2.00;;;22.10;57.30;;;;;;5006948;28;20500;-16
2022/05/09 12:59:18;;;;;;;2.30;2.20;;;22.10;57.50;;;;;;4973430;28;20027;-15
2022/05/09 13:01:50;;;;;;;2.10;2.00;;;22.20;57.30;;;;;;4976947;28;20082;-15
2022/05/09 13:04:18;;;;;;;2.70;2.47;;;22.20;57.30;;;;;;4978349;28;20027;-16
2022/05/09 13:06:45;;;;;;;2.10;2.00;;;22.20;57.20;;;;;;4978933;28;20034;-15
2022/05/09 13:09:16;;;;;;;2.85;2.08;;;22.20;57.30;;;;;;4975979;28;20043;-15
2022/05/09 13:11:45;;;;;;;2.15;1.98;;;22.30;57.10;;;;;;4974180;28;20027;-17